createdAt,value
2023-02-15T00:00:42.461Z,0.90
2023-02-15T00:03:10.489Z,0.80
2023-02-15T00:05:38.554Z,0.80
2023-02-15T00:08:06.566Z,0.80
2023-02-15T00:10:34.499Z,0.80
2023-02-15T00:13:02.679Z,0.70
2023-02-15T00:15:30.616Z,0.70
2023-02-15T00:17:59.349Z,0.70
2023-02-15T00:20:27.296Z,0.70
2023-02-15T00:22:56.004Z,0.60
2023-02-15T00:25:23.904Z,0.60
2023-02-15T00:27:51.891Z,0.60
2023-02-15T00:30:19.942Z,0.60
2023-02-15T00:32:50.124Z,0.60
2023-02-15T00:35:18.206Z,0.60
2023-02-15T00:37:46.188Z,0.60
2023-02-15T00:40:14.364Z,0.70
2023-02-15T00:42:42.295Z,0.60
2023-02-15T00:45:11.009Z,0.70
2023-02-15T00:47:39.009Z,0.70
2023-02-15T00:50:10.486Z,0.70
2023-02-15T00:52:39.468Z,0.60
2023-02-15T00:55:10.442Z,0.50
2023-02-15T00:57:41.588Z,0.50
2023-02-15T01:00:10.107Z,0.50
2023-02-15T01:02:37.997Z,0.50
2023-02-15T01:05:07.979Z,0.50
2023-02-15T01:07:35.909Z,0.60
2023-02-15T01:10:03.936Z,0.60
2023-02-15T01:12:34.513Z,0.50
2023-02-15T01:15:02.479Z,0.50
2023-02-15T01:17:30.812Z,0.50
2023-02-15T01:19:58.757Z,0.50
2023-02-15T01:22:27.078Z,0.40
2023-02-15T01:24:56.279Z,0.40
2023-02-15T01:27:24.204Z,0.40
2023-02-15T01:29:52.164Z,0.40
2023-02-15T01:32:20.095Z,0.40
2023-02-15T01:34:48.685Z,0.40
2023-02-15T01:37:16.585Z,0.50
2023-02-15T01:39:44.519Z,0.50
2023-02-15T01:42:13.507Z,0.50
2023-02-15T01:45:01.812Z,0.40
2023-02-15T01:47:45.697Z,0.40
2023-02-15T01:50:35.187Z,0.40
2023-02-15T01:53:15.058Z,0.40
2023-02-15T01:55:49.336Z,0.30
2023-02-15T01:58:17.804Z,0.20
2023-02-15T02:00:47.390Z,0.20
2023-02-15T02:03:16.367Z,0.20
2023-02-15T02:05:44.797Z,0.10
2023-02-15T02:08:14.244Z,0.10
2023-02-15T02:10:42.228Z,0.10
2023-02-15T02:13:10.258Z,0.20
2023-02-15T02:15:54.464Z,0.20
2023-02-15T02:18:34.572Z,0.20
2023-02-15T02:21:28.363Z,0.10
2023-02-15T02:24:20.051Z,0.00
2023-02-15T02:27:07.536Z,0.00
2023-02-15T02:29:58.888Z,0.00
2023-02-15T02:33:04.625Z,-0.10
2023-02-15T02:36:11.444Z,-0.10
2023-02-15T02:38:47.725Z,-0.10
2023-02-15T02:41:26.536Z,-0.10
2023-02-15T02:43:58.958Z,-0.20
2023-02-15T02:46:43.369Z,-0.20
2023-02-15T02:49:11.419Z,-0.20
2023-02-15T02:51:39.333Z,-0.20
2023-02-15T02:54:09.313Z,-0.20
2023-02-15T02:56:46.867Z,-0.20
2023-02-15T02:59:35.575Z,-0.10
2023-02-15T03:02:15.005Z,-0.10
2023-02-15T03:04:47.983Z,-0.10
2023-02-15T03:07:24.028Z,-0.10
2023-02-15T03:09:59.075Z,-0.10
2023-02-15T03:12:34.140Z,-0.10
2023-02-15T03:15:08.607Z,-0.10
2023-02-15T03:17:42.840Z,-0.10
2023-02-15T03:20:27.855Z,-0.10
2023-02-15T03:23:00.268Z,-0.10
2023-02-15T03:25:37.311Z,-0.10
2023-02-15T03:28:09.901Z,-0.10
2023-02-15T03:30:40.124Z,-0.10
2023-02-15T03:33:10.912Z,-0.10
2023-02-15T03:35:59.080Z,-0.20
2023-02-15T03:38:53.774Z,-0.20
2023-02-15T03:41:27.013Z,-0.20
2023-02-15T03:43:57.141Z,-0.10
2023-02-15T03:46:46.154Z,-0.10
2023-02-15T03:49:26.239Z,-0.10
2023-02-15T03:51:57.440Z,-0.10
2023-02-15T03:54:45.372Z,0.00
2023-02-15T03:57:43.872Z,0.00
2023-02-15T04:00:42.982Z,0.00
2023-02-15T04:03:24.598Z,0.00
2023-02-15T04:05:52.814Z,-0.10
2023-02-15T04:08:20.953Z,-0.10
2023-02-15T04:10:54.793Z,-0.10
2023-02-15T04:13:24.889Z,-0.10
2023-02-15T04:16:08.512Z,-0.10
2023-02-15T04:19:01.568Z,-0.10
2023-02-15T04:21:50.774Z,-0.10
2023-02-15T04:24:37.567Z,-0.10
2023-02-15T04:27:10.150Z,-0.10
2023-02-15T04:29:38.121Z,-0.10
2023-02-15T04:32:06.205Z,-0.10
2023-02-15T04:34:34.196Z,-0.20
2023-02-15T04:37:02.080Z,-0.20
2023-02-15T04:39:30.059Z,-0.20
2023-02-15T04:41:57.948Z,-0.30
2023-02-15T04:44:25.925Z,-0.30
2023-02-15T04:46:53.865Z,-0.30
2023-02-15T04:49:21.773Z,-0.30
2023-02-15T04:51:49.666Z,-0.30
2023-02-15T04:54:17.606Z,-0.30
2023-02-15T04:56:45.730Z,-0.30
2023-02-15T04:59:14.235Z,-0.30
2023-02-15T05:01:42.204Z,-0.30
2023-02-15T05:04:10.209Z,-0.40
2023-02-15T05:06:38.352Z,-0.40
2023-02-15T05:09:06.310Z,-0.50
2023-02-15T05:11:34.332Z,-0.50
2023-02-15T05:14:02.219Z,-0.50
2023-02-15T05:16:30.156Z,-0.50
2023-02-15T05:18:58.117Z,-0.40
2023-02-15T05:21:26.194Z,-0.40
2023-02-15T05:23:54.235Z,-0.40
2023-02-15T05:26:43.647Z,-0.50
2023-02-15T05:29:12.564Z,-0.50
2023-02-15T05:31:40.760Z,-0.50
2023-02-15T05:34:08.727Z,-0.50
2023-02-15T05:36:36.616Z,-0.60
2023-02-15T05:39:06.140Z,-0.50
2023-02-15T05:41:34.022Z,-0.60
2023-02-15T05:44:01.904Z,-0.50
2023-02-15T05:46:29.882Z,-0.50
2023-02-15T05:48:57.838Z,-0.50
2023-02-15T05:51:25.748Z,-0.40
2023-02-15T05:53:53.640Z,-0.40
2023-02-15T05:56:21.653Z,-0.40
2023-02-15T05:58:49.970Z,-0.40
2023-02-15T06:01:20.264Z,-0.40
2023-02-15T06:03:51.348Z,-0.50
2023-02-15T06:06:21.942Z,-0.50
2023-02-15T06:08:50.004Z,-0.50
2023-02-15T06:11:18.750Z,-0.60
2023-02-15T06:13:46.696Z,-0.60
2023-02-15T06:16:14.645Z,-0.60
2023-02-15T06:18:42.603Z,-0.60
2023-02-15T06:21:10.522Z,-0.60
2023-02-15T06:23:38.453Z,-0.60
2023-02-15T06:26:06.400Z,-0.60
2023-02-15T06:28:34.321Z,-0.60
2023-02-15T06:31:02.326Z,-0.70
2023-02-15T06:33:32.450Z,-0.60
2023-02-15T06:36:00.635Z,-0.50
2023-02-15T06:38:28.966Z,-0.50
2023-02-15T06:40:56.926Z,-0.50
2023-02-15T06:43:24.840Z,-0.50
2023-02-15T06:45:52.785Z,-0.50
2023-02-15T06:48:20.680Z,-0.50
2023-02-15T06:50:48.569Z,-0.50
2023-02-15T06:53:16.467Z,-0.50
2023-02-15T06:55:44.430Z,-0.60
2023-02-15T06:58:12.311Z,-0.60
2023-02-15T07:00:40.225Z,-0.60
2023-02-15T07:03:08.133Z,-0.70
2023-02-15T07:05:36.783Z,-0.70
2023-02-15T07:08:04.997Z,-0.70
2023-02-15T07:10:32.952Z,-0.70
2023-02-15T07:13:00.862Z,-0.70
2023-02-15T07:15:28.855Z,-0.70
2023-02-15T07:17:56.777Z,-0.70
2023-02-15T07:20:25.782Z,-0.70
2023-02-15T07:22:53.891Z,-0.70
2023-02-15T07:25:22.206Z,-0.70
2023-02-15T07:27:50.310Z,-0.70
2023-02-15T07:30:19.351Z,-0.60
2023-02-15T07:33:06.341Z,-0.50
2023-02-15T07:35:35.348Z,-0.30
2023-02-15T07:38:03.328Z,-0.20
2023-02-15T07:40:31.392Z,-0.30
2023-02-15T07:43:05.217Z,-0.50
2023-02-15T07:45:35.997Z,-0.50
2023-02-15T07:48:04.633Z,-0.50
2023-02-15T07:50:33.588Z,-0.50
2023-02-15T07:53:04.244Z,-0.60
2023-02-15T07:55:32.712Z,-0.60
2023-02-15T07:58:00.595Z,-0.50
2023-02-15T08:00:29.154Z,-0.50
2023-02-15T08:03:16.798Z,-0.50
2023-02-15T08:05:47.051Z,-0.20
2023-02-15T08:08:31.714Z,-0.20
2023-02-15T08:11:20.259Z,-0.40
2023-02-15T08:14:01.016Z,-0.50
2023-02-15T08:16:45.623Z,-0.50
2023-02-15T08:19:28.784Z,-0.50
2023-02-15T08:21:59.566Z,-0.50
2023-02-15T08:24:30.387Z,-0.50
2023-02-15T08:26:59.706Z,-0.50
2023-02-15T08:29:30.320Z,-0.50
2023-02-15T08:32:06.392Z,-0.40
2023-02-15T08:34:40.483Z,-0.40
2023-02-15T08:37:08.793Z,-0.40
2023-02-15T08:39:37.092Z,-0.30
2023-02-15T08:42:05.340Z,-0.30
2023-02-15T08:44:33.356Z,-0.30
2023-02-15T08:47:06.965Z,-0.20
2023-02-15T08:49:34.932Z,-0.20
2023-02-15T08:52:02.920Z,-0.20
2023-02-15T08:54:31.679Z,-0.20
2023-02-15T08:56:59.689Z,-0.30
2023-02-15T08:59:29.010Z,-0.30
2023-02-15T09:01:57.466Z,-0.20
2023-02-15T09:04:25.468Z,-0.20
2023-02-15T09:06:54.784Z,-0.20
2023-02-15T09:09:23.833Z,-0.20
2023-02-15T09:11:58.859Z,-0.10
2023-02-15T09:14:28.625Z,-0.10
2023-02-15T09:16:56.729Z,-0.10
2023-02-15T09:19:25.697Z,-0.10
2023-02-15T09:21:53.713Z,-0.20
2023-02-15T09:24:21.796Z,-0.10
2023-02-15T09:26:50.703Z,0.00
2023-02-15T09:29:20.026Z,0.00
2023-02-15T09:31:51.324Z,0.00
2023-02-15T09:34:20.820Z,0.10
2023-02-15T09:36:49.939Z,0.10
2023-02-15T09:39:19.215Z,0.00
2023-02-15T09:42:15.076Z,0.10
2023-02-15T09:45:11.201Z,0.20
2023-02-15T09:48:07.716Z,0.20
2023-02-15T09:50:57.565Z,0.30
2023-02-15T09:54:10.784Z,0.30
2023-02-15T09:56:53.419Z,0.40
2023-02-15T09:59:36.414Z,0.50
2023-02-15T10:02:24.565Z,0.40
2023-02-15T10:05:12.876Z,0.50
2023-02-15T10:08:17.760Z,0.60
2023-02-15T10:11:27.405Z,0.70
2023-02-15T10:14:16.709Z,0.70
2023-02-15T10:17:28.688Z,0.70
2023-02-15T10:20:06.985Z,0.70
2023-02-15T10:23:06.939Z,0.80
2023-02-15T10:26:03.467Z,0.80
2023-02-15T10:28:54.195Z,0.90
2023-02-15T10:32:00.490Z,0.90
2023-02-15T10:35:07.285Z,1.00
2023-02-15T10:38:01.480Z,0.90
2023-02-15T10:40:38.236Z,0.90
2023-02-15T10:43:20.253Z,1.00
2023-02-15T10:46:12.737Z,1.20
2023-02-15T10:49:05.127Z,1.30
2023-02-15T10:52:16.651Z,1.60
2023-02-15T10:55:00.324Z,2.00
2023-02-15T10:57:43.517Z,2.10
2023-02-15T11:00:52.195Z,2.10
2023-02-15T11:03:25.957Z,2.20
2023-02-15T11:06:06.799Z,2.40
2023-02-15T11:08:42.299Z,2.50
2023-02-15T11:11:14.662Z,2.40
2023-02-15T11:13:50.020Z,2.40
2023-02-15T11:16:55.067Z,2.40
2023-02-15T11:19:34.222Z,2.50
2023-02-15T11:22:05.912Z,2.60
2023-02-15T11:24:41.068Z,2.70
2023-02-15T11:27:17.624Z,2.80
2023-02-15T11:29:54.373Z,2.60
2023-02-15T11:32:25.089Z,2.50
2023-02-15T11:35:05.078Z,2.50
2023-02-15T11:37:57.401Z,2.50
2023-02-15T11:40:43.623Z,2.60
2023-02-15T11:43:38.160Z,2.70
2023-02-15T11:46:06.954Z,2.90
2023-02-15T11:48:35.398Z,3.00
2023-02-15T11:51:05.444Z,3.10
2023-02-15T11:53:40.138Z,3.10
2023-02-15T11:56:16.463Z,3.10
2023-02-15T11:58:59.200Z,3.00
2023-02-15T12:01:38.852Z,3.10
2023-02-15T12:04:26.278Z,3.30
2023-02-15T12:07:03.158Z,3.60
2023-02-15T12:09:36.465Z,3.60
2023-02-15T12:12:34.876Z,3.90
2023-02-15T12:15:10.815Z,3.90
2023-02-15T12:17:42.979Z,3.90
2023-02-15T12:20:16.812Z,4.10
2023-02-15T12:23:16.925Z,4.60
2023-02-15T12:25:56.625Z,4.90
2023-02-15T12:28:27.070Z,5.60
2023-02-15T12:30:59.586Z,6.10
2023-02-15T12:33:36.998Z,6.60
2023-02-15T12:36:21.076Z,7.40
2023-02-15T12:39:17.636Z,7.90
2023-02-15T12:42:20.677Z,8.10
2023-02-15T12:44:58.294Z,7.90
2023-02-15T12:47:29.632Z,8.50
2023-02-15T12:50:12.639Z,9.00
2023-02-15T12:52:49.509Z,8.60
2023-02-15T12:55:36.697Z,8.20
2023-02-15T12:58:32.392Z,8.00
2023-02-15T13:01:23.964Z,7.90
2023-02-15T13:04:15.988Z,8.30
2023-02-15T13:06:51.105Z,8.80
2023-02-15T13:09:23.616Z,8.60
2023-02-15T13:11:51.888Z,8.80
2023-02-15T13:14:36.147Z,9.40
2023-02-15T13:17:08.766Z,11.00
2023-02-15T13:19:39.300Z,12.00
2023-02-15T13:22:35.237Z,12.40
2023-02-15T13:25:15.208Z,12.40
2023-02-15T13:27:45.904Z,12.30
2023-02-15T13:30:29.027Z,12.90
2023-02-15T13:33:02.654Z,13.70
2023-02-15T13:35:42.233Z,14.20
2023-02-15T13:38:37.707Z,14.10
2023-02-15T13:41:11.602Z,13.70
2023-02-15T13:43:58.610Z,14.20
2023-02-15T13:46:45.623Z,13.80
2023-02-15T13:49:25.497Z,13.20
2023-02-15T13:52:13.593Z,13.10
2023-02-15T13:54:49.912Z,13.40
2023-02-15T13:57:51.065Z,13.70
2023-02-15T14:00:48.503Z,14.30
2023-02-15T14:03:36.452Z,13.80
2023-02-15T14:06:40.679Z,13.50
2023-02-15T14:09:14.565Z,14.60
2023-02-15T14:12:00.988Z,15.80
2023-02-15T14:14:54.526Z,15.50
2023-02-15T14:17:57.784Z,15.70
2023-02-15T14:20:43.863Z,14.50
2023-02-15T14:23:35.929Z,14.10
2023-02-15T14:26:34.722Z,13.40
2023-02-15T14:29:26.782Z,13.90
2023-02-15T14:31:58.415Z,14.30
2023-02-15T14:34:53.964Z,14.60
2023-02-15T14:37:44.419Z,15.00
2023-02-15T14:40:59.166Z,15.90
2023-02-15T14:43:51.463Z,15.80
2023-02-15T14:46:50.533Z,14.80
2023-02-15T14:49:25.597Z,14.10
2023-02-15T14:52:03.358Z,13.40
2023-02-15T14:54:32.328Z,13.80
2023-02-15T14:57:03.054Z,14.10
2023-02-15T14:59:39.795Z,14.70
2023-02-15T15:02:10.609Z,14.50
2023-02-15T15:04:58.535Z,14.60
2023-02-15T15:07:50.986Z,14.80
2023-02-15T15:10:18.999Z,14.30
2023-02-15T15:12:57.439Z,12.10
2023-02-15T15:15:34.228Z,10.80
2023-02-15T15:18:10.629Z,10.20
2023-02-15T15:20:46.838Z,10.00
2023-02-15T15:23:17.917Z,9.10
2023-02-15T15:25:53.923Z,8.00
2023-02-15T15:28:39.700Z,7.60
2023-02-15T15:31:21.118Z,7.30
2023-02-15T15:34:12.798Z,7.30
2023-02-15T15:36:40.763Z,7.20
2023-02-15T15:39:21.999Z,7.10
2023-02-15T15:42:10.137Z,6.80
2023-02-15T15:45:15.088Z,6.40
2023-02-15T15:48:06.603Z,6.00
2023-02-15T15:50:38.566Z,6.00
2023-02-15T15:53:06.885Z,6.10
2023-02-15T15:55:36.537Z,6.10
2023-02-15T15:58:10.221Z,6.00
2023-02-15T16:00:50.861Z,5.80
2023-02-15T16:03:24.294Z,5.90
2023-02-15T16:05:56.436Z,5.70
2023-02-15T16:08:38.324Z,5.50
2023-02-15T16:11:18.444Z,5.20
2023-02-15T16:13:46.769Z,4.80
2023-02-15T16:16:16.370Z,4.60
2023-02-15T16:18:48.410Z,4.50
2023-02-15T16:21:31.617Z,4.60
2023-02-15T16:24:19.703Z,4.70
2023-02-15T16:27:14.002Z,4.70
2023-02-15T16:29:42.063Z,4.60
2023-02-15T16:32:24.618Z,4.50
2023-02-15T16:35:01.328Z,4.30
2023-02-15T16:37:34.842Z,4.20
2023-02-15T16:40:03.286Z,4.20
2023-02-15T16:42:31.353Z,4.10
2023-02-15T16:45:08.369Z,3.90
2023-02-15T16:47:42.386Z,3.40
2023-02-15T16:50:24.798Z,3.30
2023-02-15T16:52:54.480Z,3.20
2023-02-15T16:55:31.223Z,3.10
2023-02-15T16:58:06.182Z,3.00
2023-02-15T17:00:42.546Z,2.90
2023-02-15T17:03:16.743Z,2.70
2023-02-15T17:05:47.401Z,2.60
2023-02-15T17:08:20.053Z,2.60
2023-02-15T17:11:06.011Z,2.60
2023-02-15T17:13:34.104Z,2.40
2023-02-15T17:16:02.452Z,2.20
2023-02-15T17:18:33.736Z,2.20
2023-02-15T17:21:21.285Z,2.00
2023-02-15T17:23:53.252Z,1.80
2023-02-15T17:26:26.869Z,1.60
2023-02-15T17:29:04.812Z,1.60
2023-02-15T17:31:35.066Z,1.80
2023-02-15T17:34:04.095Z,1.70
2023-02-15T17:36:33.693Z,1.60
2023-02-15T17:39:01.739Z,1.60
2023-02-15T17:41:36.229Z,1.50
2023-02-15T17:44:05.152Z,1.50
2023-02-15T17:46:39.076Z,1.60
2023-02-15T17:49:07.168Z,1.80
2023-02-15T17:51:37.134Z,1.90
2023-02-15T17:54:26.614Z,1.90
2023-02-15T17:56:59.421Z,2.00
2023-02-15T17:59:27.739Z,2.00
2023-02-15T18:02:14.006Z,2.00
2023-02-15T18:05:01.125Z,1.90
2023-02-15T18:07:50.636Z,1.80
2023-02-15T18:10:39.078Z,1.80
2023-02-15T18:13:06.977Z,1.80
2023-02-15T18:15:35.705Z,1.70
2023-02-15T18:18:04.053Z,1.70
2023-02-15T18:20:38.525Z,1.70
2023-02-15T18:23:07.637Z,1.60
2023-02-15T18:25:35.636Z,1.60
2023-02-15T18:28:03.645Z,1.50
2023-02-15T18:30:32.041Z,1.50
2023-02-15T18:33:00.897Z,1.40
2023-02-15T18:35:32.411Z,1.40
2023-02-15T18:38:02.544Z,1.30
2023-02-15T18:40:30.920Z,1.20
2023-02-15T18:42:58.846Z,1.20
2023-02-15T18:45:33.551Z,1.10
2023-02-15T18:48:01.650Z,1.10
2023-02-15T18:50:35.020Z,1.00
2023-02-15T18:53:07.119Z,1.00
2023-02-15T18:55:40.306Z,0.90
2023-02-15T18:58:17.671Z,0.80
2023-02-15T19:00:46.599Z,0.80
2023-02-15T19:03:16.317Z,0.80
2023-02-15T19:05:47.093Z,1.00
2023-02-15T19:08:20.982Z,1.00
2023-02-15T19:10:49.525Z,0.90
2023-02-15T19:13:18.508Z,0.90
2023-02-15T19:15:46.850Z,0.90
2023-02-15T19:18:14.825Z,0.90
2023-02-15T19:20:47.543Z,0.90
2023-02-15T19:23:25.903Z,0.90
2023-02-15T19:25:55.222Z,0.90
2023-02-15T19:28:33.524Z,0.90
2023-02-15T19:31:05.818Z,0.90
2023-02-15T19:33:36.434Z,1.00
2023-02-15T19:36:14.684Z,1.00
2023-02-15T19:38:43.108Z,1.10
2023-02-15T19:41:30.512Z,1.10
2023-02-15T19:43:59.720Z,1.10
2023-02-15T19:46:28.157Z,1.10
2023-02-15T19:48:56.354Z,1.10
2023-02-15T19:51:30.727Z,1.10
2023-02-15T19:53:58.970Z,1.10
2023-02-15T19:56:28.614Z,1.10
2023-02-15T19:58:59.906Z,1.20
2023-02-15T20:01:28.263Z,1.10
2023-02-15T20:03:56.705Z,1.20
2023-02-15T20:06:24.683Z,1.10
2023-02-15T20:08:52.875Z,1.10
2023-02-15T20:11:22.961Z,1.00
2023-02-15T20:13:50.887Z,1.10
2023-02-15T20:16:18.805Z,1.10
2023-02-15T20:18:47.581Z,1.20
2023-02-15T20:21:17.503Z,1.10
2023-02-15T20:23:49.035Z,1.10
2023-02-15T20:26:19.272Z,1.10
2023-02-15T20:28:47.837Z,1.10
2023-02-15T20:31:21.499Z,1.10
2023-02-15T20:33:50.445Z,1.00
2023-02-15T20:36:20.885Z,1.00
2023-02-15T20:38:49.933Z,1.00
2023-02-15T20:41:40.099Z,1.00
2023-02-15T20:44:20.113Z,1.00
2023-02-15T20:46:48.721Z,1.00
2023-02-15T20:49:16.643Z,1.10
2023-02-15T20:51:45.593Z,1.10
2023-02-15T20:54:22.354Z,1.10
2023-02-15T20:56:55.439Z,1.10
2023-02-15T20:59:33.939Z,1.00
2023-02-15T21:02:24.542Z,0.90
2023-02-15T21:04:52.776Z,0.90
2023-02-15T21:07:22.956Z,0.90
2023-02-15T21:09:50.974Z,0.90
2023-02-15T21:12:20.956Z,0.90
2023-02-15T21:14:49.072Z,0.90
2023-02-15T21:17:17.962Z,0.90
2023-02-15T21:19:45.914Z,0.90
2023-02-15T21:22:15.136Z,0.90
2023-02-15T21:24:51.916Z,0.90
2023-02-15T21:27:19.974Z,0.80
2023-02-15T21:29:47.863Z,0.70
2023-02-15T21:32:15.978Z,0.80
2023-02-15T21:34:43.895Z,0.70
2023-02-15T21:37:32.696Z,0.70
2023-02-15T21:40:00.715Z,0.70
2023-02-15T21:42:47.601Z,0.80
2023-02-15T21:45:38.574Z,0.70
2023-02-15T21:48:06.652Z,0.70
2023-02-15T21:50:54.863Z,0.70
2023-02-15T21:53:27.845Z,0.70
2023-02-15T21:55:58.343Z,0.70
2023-02-15T21:58:28.915Z,0.70
2023-02-15T22:00:58.959Z,0.70
2023-02-15T22:03:32.209Z,0.70
2023-02-15T22:06:00.300Z,0.70
2023-02-15T22:08:28.221Z,0.70
2023-02-15T22:10:57.563Z,0.70
2023-02-15T22:13:34.654Z,0.70
2023-02-15T22:16:03.991Z,0.70
2023-02-15T22:18:34.519Z,0.70
2023-02-15T22:21:04.153Z,0.70
2023-02-15T22:23:32.355Z,0.70
2023-02-15T22:26:23.542Z,0.60
2023-02-15T22:28:51.959Z,0.50
2023-02-15T22:31:24.446Z,0.40
2023-02-15T22:33:52.502Z,0.40
2023-02-15T22:36:31.468Z,0.40
2023-02-15T22:38:59.430Z,0.40
2023-02-15T22:41:30.861Z,0.40
2023-02-15T22:43:59.072Z,0.40
2023-02-15T22:46:27.670Z,0.40
2023-02-15T22:48:55.706Z,0.40
2023-02-15T22:51:25.283Z,0.40
2023-02-15T22:53:54.832Z,0.40
2023-02-15T22:56:44.832Z,0.40
2023-02-15T22:59:21.696Z,0.30
2023-02-15T23:01:53.159Z,0.30
2023-02-15T23:04:29.221Z,0.30
2023-02-15T23:07:00.514Z,0.30
2023-02-15T23:09:28.463Z,0.30
2023-02-15T23:11:56.322Z,0.30
2023-02-15T23:14:35.912Z,0.40
2023-02-15T23:17:04.080Z,0.30
2023-02-15T23:19:32.148Z,0.30
2023-02-15T23:22:00.016Z,0.30
2023-02-15T23:24:29.926Z,0.30
2023-02-15T23:27:18.752Z,0.30
2023-02-15T23:29:47.109Z,0.30
2023-02-15T23:32:16.441Z,0.30
2023-02-15T23:34:44.666Z,0.30
2023-02-15T23:37:27.004Z,0.20
2023-02-15T23:40:13.378Z,0.20
2023-02-15T23:42:41.885Z,0.20
2023-02-15T23:45:24.879Z,0.20
2023-02-15T23:48:28.977Z,0.20
2023-02-15T23:50:56.874Z,0.20
2023-02-15T23:53:24.763Z,0.20
2023-02-15T23:55:53.005Z,0.20
2023-02-15T23:58:24.776Z,0.20
